Angel Dos Santos

Recruteur - Leon
3 Déc 2028
Dimanche
Processus

Personnalité

Adaptabilité (18) Ambition (2) Controverse (17) Loyauté (16) Pression (16) Professionnalisme (11) Sportivité (1) Tempérament (8)

Profil

Style d'entraînement Démocratique
Diplôme National B
Détermination 13
Gestion des joueurs 7
Motivation 13
Discipline 6
Satisfaction professionnelle
100%
Fatigue
0%
Rôle Recruteur
Salaire 66.0K p/s
Contrat 14.03.2030

Performance

Comportement Bon
Efficacité de l'entraînement
58%
Développement des joueurs
70%
Prévention des blessures
35%
Mise en place tactique
35%

Événements récents

A évalué un joueur maintenant
A participé à une réunion de recrutement maintenant
A recommandé une cible de transfert maintenant
A recommandé une cible de transfert maintenant
A évalué un joueur maintenant
A évalué un joueur maintenant
A observé un match 7j
A évalué un joueur 7j

Suivi en cours

128
Joueur Club Statut Capacité Confiance Observé Dernière observation Dernier vote
Javier Mena Aguilas Doradas Actif 125 / 121 40% 2 01.12.2028 -
Camilo Martinez Cortulua Actif 134 / 127 40% 1 01.12.2028 -
Jan Carlos Ángulo Deportes Tolima Actif 124 / 124 40% 1 01.12.2028 -
José Caldera Deportivo Cali Actif 122 / 118 40% 1 29.11.2028 -
Ronaldo Pájaro Deportivo Cali Actif 118 / 120 40% 1 29.11.2028 -
Juan Camilo Mosquera Atletico Bucaramanga Actif 116 / 116 40% 1 29.11.2028 -
Eber Moreno Deportivo Pereira Actif 119 / 111 40% 3 28.11.2028 -
Junior Hernández Deportes Tolima Actif 121 / 120 40% 3 28.11.2028 -
Agustín Sández Newell's Old Boys Actif 123 / 121 40% 1 28.11.2028 -
Francisco Álvarez Nacional Actif 128 / 123 40% 2 27.11.2028 -
Luis Palacios Once Caldas Actif 125 / 123 40% 2 27.11.2028 -
Mateo Garavito Deportivo Pasto Actif 119 / 125 40% 1 27.11.2028 -
Samuel Velásquez Atletico Nacional Actif 127 / 122 40% 1 26.11.2028 -
Juan José Tello Deportivo Cali Actif 112 / 114 40% 1 26.11.2028 -
Santiago Salcedo Cruzeiro Actif 163 / 161 40% 1 26.11.2028 -
Mateo Mendoza Yokohama F. Marinos Actif 132 / 134 40% 3 24.11.2028 -
Jermein Peña Junior Actif 131 / 128 40% 2 24.11.2028 -
Yeferson Rodallega Envigado Actif 118 / 114 40% 1 24.11.2028 -
Bruno Leyes Godoy Cruz Actif 133 / 127 40% 1 23.11.2028 -
Diego Hernández Aguilas Doradas Actif 118 / 122 40% 1 23.11.2028 -
Guille Rosas Boca Juniors Actif 144 / 144 40% 1 21.11.2028 -
Jonathan De Irastorza Independiente Actif 137 / 129 40% 2 20.11.2028 -
Aarón Quiros Vélez Actif 132 / 132 40% 1 19.11.2028 -
Tomás Castro Ponce Atlanta Actif 111 / 115 40% 1 19.11.2028 -
Juan José Mera Deportes Tolima Actif 121 / 119 40% 1 17.11.2028 -
Santiago Cuero Fortaleza CEIF Actif 109 / 114 40% 1 16.11.2028 -
Siro Rosané Estudiantes Actif 124 / 122 40% 1 15.11.2028 -
Augusto Schott Talleres Actif 127 / 124 40% 1 15.11.2028 -
Alejo Tabares All Boys Actif 119 / 121 40% 1 09.11.2028 -
Tobías Leiva Estudiantes Actif 119 / 121 40% 1 09.11.2028 -
Yílmar Velásquez Santa Fe Actif 119 / 120 40% 1 09.11.2028 -
Tobías Ramírez River Plate Actif 126 / 131 40% 2 06.10.2028 -
Felipe Varela Trujillanos Actif 89 / 93 40% 1 06.10.2028 -
Roberto Medina La Equidad Actif 98 / 101 40% 1 06.10.2028 -
Azizbek To'lqinbekov Bunyodkor Actif 106 / 110 40% 2 04.10.2028 -
Buba Sangaré Elche Actif 133 / 144 40% 1 04.10.2028 -
Giovanni Leoni Lincoln City Actif 149 / 149 40% 4 03.10.2028 -
Lautaro Dufur Juventud Actif 98 / 107 40% 1 03.10.2028 -
Pau Cubarsí Real Sociedad Actif 166 / 163 40% 1 03.10.2028 -
Celías Ingenthron Platense Actif 114 / 123 40% 2 02.10.2028 -
Santiago Espíndola River Plate Actif 108 / 121 40% 1 02.10.2028 -
Nicolás Blanco San Lorenzo Actif 100 / 104 40% 2 21.08.2028 -
Mirza Ćatović VfB Stuttgart Actif 121 / 129 40% 1 21.08.2028 -
Luis Otávio Orlando City Actif 117 / 120 40% 1 21.08.2028 -
Lamine Bèye Portimonense Actif 119 / 125 40% 3 07.08.2028 -
Riquelme Thompson-Jones Accrington Stanley Actif 121 / 121 40% 5 07.08.2028 -
Bernardo Lima Porto Perdu 121 / 126 40% 1 07.08.2028 -
Gabriel Mec Feirense Actif 129 / 135 40% 1 26.06.2028 -
Ryan McAidoo Oldham Athletic Actif 132 / 131 40% 1 26.06.2028 -
Ibrahim Fullah Charlton Athletic Actif 119 / 127 40% 1 26.06.2028 -
Sebastián Córdova Pumas UNAM Rapport prêt 140 / 139 79% 1 19.06.2028 -
Jorge Salinas Racing Santander Actif 136 / 132 40% 8 12.06.2028 -
Ryunosuke Sato Eibar Actif 128 / 141 40% 1 12.06.2028 -
Igor Tyjon Barrow AFC Actif 125 / 126 40% 1 12.06.2028 -
Gilberto Mora Guadalajara Actif 131 / 139 40% 2 05.06.2028 -
Lucas Di Yorio Santos Laguna Rapport prêt 117 / 114 79% 1 05.06.2028 -
Aarón Ochoa Málaga Actif 128 / 123 40% 1 05.06.2028 -
Eli Junior Kroupi Bournemouth Actif 152 / 151 40% 1 05.06.2028 -
Josh Nichols Oldham Athletic Actif 118 / 124 40% 5 04.06.2028 -
Tyler Fletcher Rotherham United Actif 109 / 118 40% 5 04.06.2028 -
Nicolás Castro Toluca Perdu 133 / 132 79% 1 03.06.2028 -
Vladan Kovačević Norwich City Actif 129 / 124 40% 1 02.06.2028 -
Christos Mouzakitis Hull City Actif 131 / 142 40% 6 01.06.2028 -
Fer Niño Elche Actif 141 / 127 40% 1 01.06.2028 -
Mustafa Hekimoğlu Antalyaspor Actif 121 / 129 40% 1 01.06.2028 -
Trey Nyoni Rotherham United Actif 135 / 144 40% 7 31.05.2028 -
Carlos Gugenheim Grimsby Town Actif 120 / 115 40% 1 31.05.2028 -
Christantus Uche Getafe Actif 140 / 142 40% 1 31.05.2028 -
Yassir Zabiri Stade Rennais Actif 143 / 149 40% 1 31.05.2028 -
Héctor Fort Real Sociedad Actif 141 / 152 40% 10 19.05.2028 -
Ayden Heaven Portsmouth Actif 149 / 145 40% 5 13.05.2028 -
Jorthy Mokio ADO Den Haag Actif 138 / 138 40% 7 13.05.2028 -
Andrey Ivlev Nizhniy Novgorod Actif 112 / 123 40% 3 10.05.2028 -
Nicolò Moranduzzo Renate Actif 92 / 103 40% 1 07.05.2028 -
Honest Ahanor Atalanta Actif 144 / 139 40% 1 04.05.2028 -
Kamaldeen Atiemo Wa All Stars Actif 107 / 108 40% 1 29.04.2028 -
Thijs Kraaijeveld USM Alger Actif 130 / 132 40% 1 26.04.2028 -
Pape Diong Westerlo Perdu 118 / 131 40% 2 24.04.2028 -
João Simões Sporting CP Actif 135 / 145 40% 1 14.04.2028 -
Izan Merino Málaga Actif 133 / 137 40% 3 07.04.2028 -
Cheveyo Tsawa Club Brugge Actif 130 / 125 40% 1 05.04.2028 -
Bernardo Lima Porto Perdu 105 / 117 40% 1 19.03.2028 -
Martim Cunha Porto Actif 101 / 111 40% 1 06.03.2028 -
Pedro Vite Pumas UNAM Actif 124 / 126 79% 1 24.01.2028 Approuver
Marcelo Pappano Morelia Actif 105 / 105 30% 1 / 1m 05.01.2028 -
Arneth González Santos Laguna Actif 103 / 103 79% 1 04.01.2028 Approuver
Daniel Idoko Ikorodu City Actif 96 / 91 40% 5 31.12.2027 -
Hosea Michael Remo Stars Actif 96 / 97 40% 1 31.12.2027 -
Felipe Faúndez O'Higgins Actif 100 / 108 40% 5 06.12.2027 -
Agustín Obregón River Plate Actif 113 / 117 40% 4 06.12.2027 -
Yury Oyarzo Racing Actif 90 / 104 40% 3 06.12.2027 -
Ignacio Fernández Boston River Actif 92 / 104 40% 1 02.12.2027 -
Diego Vargas Universidad de Concepcion Actif 97 / 100 40% 2 26.11.2027 -
Hugo Rojas Instituto Actif 107 / 113 40% 3 26.11.2027 -
Victor Hernandez Santa Fe Actif 116 / 125 40% 3 22.11.2027 -
Agustín Medina Lanús Actif 120 / 123 40% 2 22.11.2027 -
Olaniyi Saheed Kwara United Actif 100 / 104 40% 2 14.11.2027 -
Juan Manuel Villalba Tigre Actif 120 / 127 40% 2 10.11.2027 -
Colin Guske Orlando City Actif 90 / 97 40% 1 10.11.2027 -
Adrian Skogmar Malmo FF Actif 116 / 115 40% 1 09.11.2027 -
Jon Martín Real Sociedad Actif 144 / 138 40% 2 07.11.2027 -
Josh Acheampong Everton Actif 138 / 142 40% 1 07.11.2027 -
Yerry Gonzalez Universitario Popayan Actif 89 / 97 40% 3 05.11.2027 -
Ángel Aguayo Sol de America Actif 98 / 102 40% 3 04.11.2027 -
Halam Loboa Sevilla Actif 129 / 127 40% 1 04.11.2027 -
Facundo Balatti Penarol Actif 107 / 112 40% 1 02.11.2027 -
Rubén Del Campo Morelia Actif 111 / 111 42% 1 / 1m 27.10.2027 -
Oscar Steinke Brånby Hammarby Actif 107 / 103 40% 1 17.10.2027 -
Santiago Colidio Liepaja Actif 92 / 103 40% 1 17.10.2027 -
Gideon Manaseh Ikorodu City Actif 97 / 93 40% 1 11.10.2027 -
Matias Siltanen Malmo FF Actif 124 / 133 40% 3 10.10.2027 -
Esteban de Lima Tacuarembo Actif 89 / 101 40% 1 08.10.2027 -
Alejandro Almaraz NK Celje Actif 115 / 122 40% 1 08.10.2027 -
Nazareno Roselli Defensa y Justicia Actif 110 / 122 40% 1 02.10.2027 -
Eliás Montiel Borussia Dortmund Actif 142 / 147 40% 3 18.09.2027 -
Sebastián Flores Ferro Carril Oeste Actif 107 / 112 40% 2 18.09.2027 -
Sebastián Arancibia Antofagasta Actif 107 / 109 40% 1 18.09.2027 -
Nahuel Leivas Montevideo City Torque Actif 106 / 112 40% 2 17.09.2027 -
Lucas Bergvall Tottenham Actif 142 / 154 40% 1 17.09.2027 -
Gadiel Paoli River Plate Actif 96 / 103 40% 3 16.09.2027 -
Victor Palacios Sporting CP Actif 140 / 142 40% 1 30.08.2027 -
Novak Mićović LA Galaxy Actif 121 / 122 40% 1 30.08.2027 -
Emirhan Başyiğit Sivasspor Actif 106 / 115 40% 1 29.03.2027 -
Gonçalo Oliveira Benfica Actif 114 / 114 40% 1 28.03.2027 -
Zane Albarus Shrewsbury Town Actif 91 / 99 40% 1 27.03.2027 -
Jenson Jones Walsall Actif 96 / 98 40% 1 24.03.2027 -
Jan Bürger Northampton Town Actif 118 / 121 40% 1 21.03.2027 -
Riley Owen Stevenage Actif 103 / 104 40% 1 21.03.2027 -